sensor_id;sensor_type;location;lat;lon;timestamp;pressure;altitude;pressure_sealevel;temperature;humidity
33625;BME280;19962;47.820;1.930;2023-05-22T00:02:09;100446.16;;;19.47;70.67
33625;BME280;19962;47.820;1.930;2023-05-22T00:04:36;100439.38;;;19.29;71.23
33625;BME280;19962;47.820;1.930;2023-05-22T00:07:02;100442.63;;;19.36;70.91
33625;BME280;19962;47.820;1.930;2023-05-22T00:09:28;100432.81;;;19.44;70.76
33625;BME280;19962;47.820;1.930;2023-05-22T00:11:54;100443.75;;;19.35;71.55
33625;BME280;19962;47.820;1.930;2023-05-22T00:14:20;100435.97;;;19.32;71.77
33625;BME280;19962;47.820;1.930;2023-05-22T00:16:46;100432.63;;;19.35;71.67
33625;BME280;19962;47.820;1.930;2023-05-22T00:19:13;100424.84;;;19.32;71.96
33625;BME280;19962;47.820;1.930;2023-05-22T00:21:44;100428.19;;;19.34;71.38
33625;BME280;19962;47.820;1.930;2023-05-22T00:24:11;100425.97;;;19.31;71.60
33625;BME280;19962;47.820;1.930;2023-05-22T00:26:37;100421.25;;;19.32;71.54
33625;BME280;19962;47.820;1.930;2023-05-22T00:29:04;100418.25;;;19.18;72.42
33625;BME280;19962;47.820;1.930;2023-05-22T00:31:32;100424.81;;;19.37;71.15
33625;BME280;19962;47.820;1.930;2023-05-22T00:33:59;100418.56;;;19.50;70.58
33625;BME280;19962;47.820;1.930;2023-05-22T00:36:25;100413.63;;;19.47;71.18
33625;BME280;19962;47.820;1.930;2023-05-22T00:38:51;100419.91;;;19.24;72.24
33625;BME280;19962;47.820;1.930;2023-05-22T00:41:17;100422.69;;;19.29;72.19
33625;BME280;19962;47.820;1.930;2023-05-22T00:43:43;100429.28;;;19.38;71.53
33625;BME280;19962;47.820;1.930;2023-05-22T00:46:10;100424.53;;;19.39;71.45
33625;BME280;19962;47.820;1.930;2023-05-22T00:48:37;100435.69;;;19.34;71.71
33625;BME280;19962;47.820;1.930;2023-05-22T00:51:04;100432.34;;;19.37;71.93
33625;BME280;19962;47.820;1.930;2023-05-22T00:53:31;100434.84;;;19.33;72.46
33625;BME280;19962;47.820;1.930;2023-05-22T00:55:58;100429.28;;;19.33;72.35
33625;BME280;19962;47.820;1.930;2023-05-22T00:58:26;100427.63;;;19.32;72.16
33625;BME280;19962;47.820;1.930;2023-05-22T01:00:52;100419.91;;;19.29;72.49
33625;BME280;19962;47.820;1.930;2023-05-22T01:03:19;100420.56;;;19.11;73.18
33625;BME280;19962;47.820;1.930;2023-05-22T01:05:51;100415.47;;;19.18;73.11
33625;BME280;19962;47.820;1.930;2023-05-22T01:08:18;100415.97;;;19.30;72.81
33625;BME280;19962;47.820;1.930;2023-05-22T01:10:44;100424.91;;;19.27;73.07
33625;BME280;19962;47.820;1.930;2023-05-22T01:13:27;100426.03;;;19.26;72.99
33625;BME280;19962;47.820;1.930;2023-05-22T01:18:40;100425.25;;;19.16;73.59
33625;BME280;19962;47.820;1.930;2023-05-22T01:21:27;100430.47;;;19.22;73.79
33625;BME280;19962;47.820;1.930;2023-05-22T01:27:20;100438.63;;;19.14;73.34
33625;BME280;19962;47.820;1.930;2023-05-22T01:32:33;100430.50;;;19.17;73.58
33625;BME280;19962;47.820;1.930;2023-05-22T01:35:02;100431.69;;;19.06;73.88
33625;BME280;19962;47.820;1.930;2023-05-22T01:37:30;100431.16;;;19.04;74.19
33625;BME280;19962;47.820;1.930;2023-05-22T01:39:57;100431.44;;;19.03;73.86
33625;BME280;19962;47.820;1.930;2023-05-22T01:42:24;100430.06;;;19.00;73.87
33625;BME280;19962;47.820;1.930;2023-05-22T01:44:50;100423.47;;;18.91;74.33
33625;BME280;19962;47.820;1.930;2023-05-22T01:47:16;100433.91;;;19.09;73.88
33625;BME280;19962;47.820;1.930;2023-05-22T01:49:43;100428.00;;;19.16;73.04
33625;BME280;19962;47.820;1.930;2023-05-22T01:52:33;100420.56;;;19.11;73.17
33625;BME280;19962;47.820;1.930;2023-05-22T01:55:10;100427.25;;;19.05;73.08
33625;BME280;19962;47.820;1.930;2023-05-22T01:58:03;100432.56;;;19.02;73.31
33625;BME280;19962;47.820;1.930;2023-05-22T02:00:34;100429.63;;;18.83;73.83
33625;BME280;19962;47.820;1.930;2023-05-22T02:03:11;100424.59;;;18.90;73.74
33625;BME280;19962;47.820;1.930;2023-05-22T02:05:39;100423.75;;;18.90;73.56
33625;BME280;19962;47.820;1.930;2023-05-22T02:08:06;100422.09;;;18.89;73.83
33625;BME280;19962;47.820;1.930;2023-05-22T02:10:34;100413.53;;;18.80;74.53
33625;BME280;19962;47.820;1.930;2023-05-22T02:13:00;100426.69;;;18.65;75.26
33625;BME280;19962;47.820;1.930;2023-05-22T02:15:26;100427.44;;;18.80;74.70
33625;BME280;19962;47.820;1.930;2023-05-22T02:17:53;100427.91;;;18.92;74.19
33625;BME280;19962;47.820;1.930;2023-05-22T02:20:19;100428.91;;;19.06;73.24
33625;BME280;19962;47.820;1.930;2023-05-22T02:22:46;100430.72;;;18.87;73.91
33625;BME280;19962;47.820;1.930;2023-05-22T02:25:13;100427.97;;;18.82;74.04
33625;BME280;19962;47.820;1.930;2023-05-22T02:27:41;100423.56;;;18.76;74.17
33625;BME280;19962;47.820;1.930;2023-05-22T02:30:08;100433.63;;;18.62;75.01
33625;BME280;19962;47.820;1.930;2023-05-22T02:32:34;100427.47;;;18.70;74.56
33625;BME280;19962;47.820;1.930;2023-05-22T02:35:00;100426.91;;;18.73;74.05
33625;BME280;19962;47.820;1.930;2023-05-22T02:37:28;100422.50;;;18.67;74.15
33625;BME280;19962;47.820;1.930;2023-05-22T02:39:54;100428.66;;;18.59;74.78
33625;BME280;19962;47.820;1.930;2023-05-22T02:42:20;100423.06;;;18.64;74.39
33625;BME280;19962;47.820;1.930;2023-05-22T02:44:46;100430.31;;;18.60;74.46
33625;BME280;19962;47.820;1.930;2023-05-22T02:47:12;100419.13;;;18.70;73.88
33625;BME280;19962;47.820;1.930;2023-05-22T02:49:39;100416.09;;;18.67;74.00
33625;BME280;19962;47.820;1.930;2023-05-22T02:52:05;100426.91;;;18.73;73.60
33625;BME280;19962;47.820;1.930;2023-05-22T02:54:31;100419.94;;;18.76;73.14
33625;BME280;19962;47.820;1.930;2023-05-22T02:56:57;100421.31;;;18.78;73.10
33625;BME280;19962;47.820;1.930;2023-05-22T02:59:23;100424.38;;;18.77;72.85
33625;BME280;19962;47.820;1.930;2023-05-22T03:01:50;100424.66;;;18.75;72.70
33625;BME280;19962;47.820;1.930;2023-05-22T03:04:16;100427.25;;;18.62;72.90
33625;BME280;19962;47.820;1.930;2023-05-22T03:06:42;100430.63;;;18.54;73.19
33625;BME280;19962;47.820;1.930;2023-05-22T03:09:10;100439.22;;;18.57;73.13
33625;BME280;19962;47.820;1.930;2023-05-22T03:11:36;100442.25;;;18.66;72.45
33625;BME280;19962;47.820;1.930;2023-05-22T03:14:02;100438.13;;;18.48;72.61
33625;BME280;19962;47.820;1.930;2023-05-22T03:16:28;100440.41;;;18.41;73.21
33625;BME280;19962;47.820;1.930;2023-05-22T03:19:14;100441.00;;;18.33;73.34
33625;BME280;19962;47.820;1.930;2023-05-22T03:21:40;100442.34;;;18.31;73.33
33625;BME280;19962;47.820;1.930;2023-05-22T03:24:09;100443.19;;;18.26;73.48
33625;BME280;19962;47.820;1.930;2023-05-22T03:26:37;100446.03;;;18.11;74.00
33625;BME280;19962;47.820;1.930;2023-05-22T03:29:04;100442.13;;;18.17;73.38
33625;BME280;19962;47.820;1.930;2023-05-22T03:31:31;100437.66;;;18.21;73.31
33625;BME280;19962;47.820;1.930;2023-05-22T03:33:58;100436.56;;;18.27;72.85
33625;BME280;19962;47.820;1.930;2023-05-22T03:36:24;100439.03;;;18.29;72.66
33625;BME280;19962;47.820;1.930;2023-05-22T03:38:50;100435.44;;;18.23;72.79
33625;BME280;19962;47.820;1.930;2023-05-22T03:41:17;100425.47;;;18.22;72.75
33625;BME280;19962;47.820;1.930;2023-05-22T03:43:44;100434.31;;;18.24;72.63
33625;BME280;19962;47.820;1.930;2023-05-22T03:46:10;100431.56;;;18.24;72.29
33625;BME280;19962;47.820;1.930;2023-05-22T03:48:38;100436.28;;;18.19;72.74
33625;BME280;19962;47.820;1.930;2023-05-22T03:51:04;100439.84;;;18.29;72.17
33625;BME280;19962;47.820;1.930;2023-05-22T03:53:30;100438.78;;;18.20;72.21
33625;BME280;19962;47.820;1.930;2023-05-22T03:55:56;100446.56;;;18.13;72.32
33625;BME280;19962;47.820;1.930;2023-05-22T03:58:23;100443.81;;;18.18;72.07
33625;BME280;19962;47.820;1.930;2023-05-22T04:00:55;100455.47;;;18.10;72.06
33625;BME280;19962;47.820;1.930;2023-05-22T04:03:23;100453.50;;;18.11;72.24
33625;BME280;19962;47.820;1.930;2023-05-22T04:05:49;100454.94;;;18.03;72.88
33625;BME280;19962;47.820;1.930;2023-05-22T04:08:16;100460.47;;;18.18;71.93
33625;BME280;19962;47.820;1.930;2023-05-22T04:10:43;100456.56;;;18.19;71.65
33625;BME280;19962;47.820;1.930;2023-05-22T04:13:12;100459.91;;;18.16;71.30
33625;BME280;19962;47.820;1.930;2023-05-22T04:15:38;100455.22;;;18.07;71.84
33625;BME280;19962;47.820;1.930;2023-05-22T04:18:06;100456.28;;;18.11;71.72
33625;BME280;19962;47.820;1.930;2023-05-22T04:20:32;100462.38;;;18.23;71.20
33625;BME280;19962;47.820;1.930;2023-05-22T04:22:58;100460.41;;;18.38;70.46
33625;BME280;19962;47.820;1.930;2023-05-22T04:25:25;100463.22;;;18.33;70.08
33625;BME280;19962;47.820;1.930;2023-05-22T04:27:51;100456.00;;;18.27;70.61
33625;BME280;19962;47.820;1.930;2023-05-22T04:30:18;100464.91;;;18.19;70.84
33625;BME280;19962;47.820;1.930;2023-05-22T04:32:44;100452.09;;;18.28;70.27
33625;BME280;19962;47.820;1.930;2023-05-22T04:35:10;100456.78;;;18.33;70.16
33625;BME280;19962;47.820;1.930;2023-05-22T04:37:43;100460.75;;;18.02;70.96
33625;BME280;19962;47.820;1.930;2023-05-22T04:40:11;100466.59;;;18.05;70.87
33625;BME280;19962;47.820;1.930;2023-05-22T04:42:38;100471.06;;;17.86;71.32
33625;BME280;19962;47.820;1.930;2023-05-22T04:45:05;100466.09;;;17.58;72.33
33625;BME280;19962;47.820;1.930;2023-05-22T04:47:31;100476.06;;;17.59;72.43
33625;BME280;19962;47.820;1.930;2023-05-22T04:49:58;100474.41;;;17.78;71.83
33625;BME280;19962;47.820;1.930;2023-05-22T04:52:25;100463.00;;;17.80;71.73
33625;BME280;19962;47.820;1.930;2023-05-22T04:54:51;100467.19;;;17.92;70.96
33625;BME280;19962;47.820;1.930;2023-05-22T04:57:19;100475.50;;;17.92;71.22
33625;BME280;19962;47.820;1.930;2023-05-22T04:59:46;100464.38;;;17.97;70.83
33625;BME280;19962;47.820;1.930;2023-05-22T05:02:13;100467.72;;;17.89;71.05
33625;BME280;19962;47.820;1.930;2023-05-22T05:04:39;100468.84;;;17.83;70.89
33625;BME280;19962;47.820;1.930;2023-05-22T05:07:06;100458.28;;;17.90;70.73
33625;BME280;19962;47.820;1.930;2023-05-22T05:09:32;100456.63;;;17.89;70.55
33625;BME280;19962;47.820;1.930;2023-05-22T05:11:58;100456.34;;;17.96;70.53
33625;BME280;19962;47.820;1.930;2023-05-22T05:14:24;100461.59;;;18.02;69.74
33625;BME280;19962;47.820;1.930;2023-05-22T05:16:51;100455.50;;;18.00;69.89
33625;BME280;19962;47.820;1.930;2023-05-22T05:19:17;100451.06;;;17.89;69.69
33625;BME280;19962;47.820;1.930;2023-05-22T05:21:46;100468.28;;;17.86;70.10
33625;BME280;19962;47.820;1.930;2023-05-22T05:24:15;100460.75;;;18.02;69.97
33625;BME280;19962;47.820;1.930;2023-05-22T05:26:42;100466.03;;;17.98;69.55
33625;BME280;19962;47.820;1.930;2023-05-22T05:29:08;100467.19;;;17.92;70.03
33625;BME280;19962;47.820;1.930;2023-05-22T05:31:34;100462.16;;;18.09;69.33
33625;BME280;19962;47.820;1.930;2023-05-22T05:34:00;100465.47;;;18.06;68.77
33625;BME280;19962;47.820;1.930;2023-05-22T05:36:28;100467.72;;;17.94;68.98
33625;BME280;19962;47.820;1.930;2023-05-22T05:38:54;100464.44;;;17.82;68.96
33625;BME280;19962;47.820;1.930;2023-05-22T05:41:22;100469.97;;;17.67;69.55
33625;BME280;19962;47.820;1.930;2023-05-22T05:43:49;100476.34;;;17.73;70.19
33625;BME280;19962;47.820;1.930;2023-05-22T05:46:17;100474.41;;;17.88;69.76
33625;BME280;19962;47.820;1.930;2023-05-22T05:48:43;100479.38;;;17.81;69.52
33625;BME280;19962;47.820;1.930;2023-05-22T05:51:10;100481.59;;;17.94;68.99
33625;BME280;19962;47.820;1.930;2023-05-22T05:53:36;100489.09;;;17.89;68.76
33625;BME280;19962;47.820;1.930;2023-05-22T05:56:02;100496.34;;;17.60;70.02
33625;BME280;19962;47.820;1.930;2023-05-22T05:58:29;100496.88;;;17.52;70.25
33625;BME280;19962;47.820;1.930;2023-05-22T06:00:55;100506.03;;;17.72;69.92
33625;BME280;19962;47.820;1.930;2023-05-22T06:03:22;100502.97;;;17.84;68.94
33625;BME280;19962;47.820;1.930;2023-05-22T06:05:50;100509.38;;;17.74;69.79
33625;BME280;19962;47.820;1.930;2023-05-22T06:08:16;100508.81;;;17.97;68.96
33625;BME280;19962;47.820;1.930;2023-05-22T06:10:44;100507.38;;;18.10;68.25
33625;BME280;19962;47.820;1.930;2023-05-22T06:13:11;100506.56;;;18.09;68.02
33625;BME280;19962;47.820;1.930;2023-05-22T06:15:38;100510.69;;;18.27;68.02
33625;BME280;19962;47.820;1.930;2023-05-22T06:18:04;100510.16;;;18.15;67.96
33625;BME280;19962;47.820;1.930;2023-05-22T06:20:30;100513.19;;;18.13;67.81
33625;BME280;19962;47.820;1.930;2023-05-22T06:22:57;100509.34;;;17.99;68.00
33625;BME280;19962;47.820;1.930;2023-05-22T06:25:23;100501.88;;;17.80;68.67
33625;BME280;19962;47.820;1.930;2023-05-22T06:27:51;100512.69;;;17.76;69.21
33625;BME280;19962;47.820;1.930;2023-05-22T06:30:17;100504.66;;;17.95;68.96
33625;BME280;19962;47.820;1.930;2023-05-22T06:32:43;100509.06;;;17.96;68.67
33625;BME280;19962;47.820;1.930;2023-05-22T06:35:10;100515.47;;;17.61;69.08
33625;BME280;19962;47.820;1.930;2023-05-22T06:37:36;100516.56;;;17.40;70.01
33625;BME280;19962;47.820;1.930;2023-05-22T06:40:04;100520.69;;;17.27;71.06
33625;BME280;19962;47.820;1.930;2023-05-22T06:42:32;100517.34;;;17.30;71.24
33625;BME280;19962;47.820;1.930;2023-05-22T06:44:58;100528.78;;;17.64;70.04
33625;BME280;19962;47.820;1.930;2023-05-22T06:47:24;100530.47;;;17.80;69.42
33625;BME280;19962;47.820;1.930;2023-05-22T06:49:50;100533.78;;;17.72;69.81
33625;BME280;19962;47.820;1.930;2023-05-22T06:52:16;100536.28;;;17.94;69.17
33625;BME280;19962;47.820;1.930;2023-05-22T06:54:42;100536.28;;;18.04;68.74
33625;BME280;19962;47.820;1.930;2023-05-22T06:57:09;100535.44;;;18.18;68.34
33625;BME280;19962;47.820;1.930;2023-05-22T06:59:36;100541.00;;;18.18;68.26
33625;BME280;19962;47.820;1.930;2023-05-22T07:02:02;100533.75;;;18.22;67.98
33625;BME280;19962;47.820;1.930;2023-05-22T07:04:28;100533.81;;;17.82;68.83
33625;BME280;19962;47.820;1.930;2023-05-22T07:06:54;100530.19;;;17.87;69.45
33625;BME280;19962;47.820;1.930;2023-05-22T07:09:20;100526.56;;;18.01;68.66
33625;BME280;19962;47.820;1.930;2023-05-22T07:11:46;100531.56;;;18.14;68.39
33625;BME280;19962;47.820;1.930;2023-05-22T07:14:12;100528.47;;;18.31;67.83
33625;BME280;19962;47.820;1.930;2023-05-22T07:16:39;100530.13;;;18.42;67.54
33625;BME280;19962;47.820;1.930;2023-05-22T07:19:05;100526.75;;;18.50;67.28
33625;BME280;19962;47.820;1.930;2023-05-22T07:21:33;100532.06;;;18.41;67.60
33625;BME280;19962;47.820;1.930;2023-05-22T07:24:01;100534.31;;;18.34;67.82
33625;BME280;19962;47.820;1.930;2023-05-22T07:26:35;100540.91;;;18.53;67.16
33625;BME280;19962;47.820;1.930;2023-05-22T07:29:01;100546.47;;;18.63;66.74
33625;BME280;19962;47.820;1.930;2023-05-22T07:31:27;100553.16;;;18.52;67.27
33625;BME280;19962;47.820;1.930;2023-05-22T07:33:53;100544.81;;;18.47;67.33
33625;BME280;19962;47.820;1.930;2023-05-22T07:36:19;100550.44;;;18.22;68.71
33625;BME280;19962;47.820;1.930;2023-05-22T07:38:45;100547.38;;;18.09;69.46
33625;BME280;19962;47.820;1.930;2023-05-22T07:41:12;100557.06;;;18.21;69.12
33625;BME280;19962;47.820;1.930;2023-05-22T07:43:38;100548.75;;;18.36;68.65
33625;BME280;19962;47.820;1.930;2023-05-22T07:46:04;100545.13;;;18.36;68.40
33625;BME280;19962;47.820;1.930;2023-05-22T07:48:31;100552.63;;;18.40;68.61
33625;BME280;19962;47.820;1.930;2023-05-22T07:50:57;100550.94;;;18.49;68.25
33625;BME280;19962;47.820;1.930;2023-05-22T07:53:23;100554.28;;;18.41;68.81
33625;BME280;19962;47.820;1.930;2023-05-22T07:55:49;100549.25;;;18.53;68.54
33625;BME280;19962;47.820;1.930;2023-05-22T07:58:15;100547.25;;;18.74;68.13
33625;BME280;19962;47.820;1.930;2023-05-22T08:00:41;100551.38;;;18.86;67.83
33625;BME280;19962;47.820;1.930;2023-05-22T08:03:08;100541.69;;;18.69;68.67
33625;BME280;19962;47.820;1.930;2023-05-22T08:05:34;100544.97;;;18.86;68.15
33625;BME280;19962;47.820;1.930;2023-05-22T08:08:00;100541.34;;;18.90;67.98
33625;BME280;19962;47.820;1.930;2023-05-22T08:10:27;100532.41;;;18.98;67.60
33625;BME280;19962;47.820;1.930;2023-05-22T08:12:54;100544.03;;;19.05;67.12
33625;BME280;19962;47.820;1.930;2023-05-22T08:15:20;100545.16;;;19.04;66.83
33625;BME280;19962;47.820;1.930;2023-05-22T08:17:46;100543.00;;;18.91;67.36
33625;BME280;19962;47.820;1.930;2023-05-22T08:20:12;100544.69;;;18.87;67.73
33625;BME280;19962;47.820;1.930;2023-05-22T08:22:38;100539.03;;;19.02;67.19
33625;BME280;19962;47.820;1.930;2023-05-22T08:25:05;100551.88;;;18.93;67.63
33625;BME280;19962;47.820;1.930;2023-05-22T08:27:31;100542.75;;;18.88;68.44
33625;BME280;19962;47.820;1.930;2023-05-22T08:29:57;100549.09;;;18.98;68.02
33625;BME280;19962;47.820;1.930;2023-05-22T08:32:23;100543.72;;;19.12;67.96
33625;BME280;19962;47.820;1.930;2023-05-22T08:34:49;100551.56;;;19.00;68.26
33625;BME280;19962;47.820;1.930;2023-05-22T08:37:16;100551.84;;;19.03;68.36
33625;BME280;19962;47.820;1.930;2023-05-22T08:39:42;100554.53;;;19.18;67.77
33625;BME280;19962;47.820;1.930;2023-05-22T08:42:08;100548.13;;;19.18;67.81
33625;BME280;19962;47.820;1.930;2023-05-22T08:44:34;100551.75;;;19.18;68.04
33625;BME280;19962;47.820;1.930;2023-05-22T08:47:00;100551.69;;;19.33;67.47
33625;BME280;19962;47.820;1.930;2023-05-22T08:49:29;100554.41;;;19.48;67.00
33625;BME280;19962;47.820;1.930;2023-05-22T08:52:02;100553.31;;;19.44;67.43
33625;BME280;19962;47.820;1.930;2023-05-22T08:54:28;100549.63;;;19.54;66.89
33625;BME280;19962;47.820;1.930;2023-05-22T08:56:55;100548.59;;;19.45;67.31
33625;BME280;19962;47.820;1.930;2023-05-22T08:59:22;100551.69;;;19.33;67.97
33625;BME280;19962;47.820;1.930;2023-05-22T09:01:48;100550.00;;;19.37;68.36
33625;BME280;19962;47.820;1.930;2023-05-22T09:04:17;100550.00;;;19.37;68.07
33625;BME280;19962;47.820;1.930;2023-05-22T09:06:46;100551.31;;;19.50;67.73
33625;BME280;19962;47.820;1.930;2023-05-22T09:09:12;100549.31;;;19.55;67.84
33625;BME280;19962;47.820;1.930;2023-05-22T09:11:38;100554.78;;;19.70;67.41
33625;BME280;19962;47.820;1.930;2023-05-22T09:14:09;100560.97;;;19.62;67.43
33625;BME280;19962;47.820;1.930;2023-05-22T09:16:45;100554.75;;;19.75;66.94
33625;BME280;19962;47.820;1.930;2023-05-22T09:19:12;100560.75;;;19.92;67.00
33625;BME280;19962;47.820;1.930;2023-05-22T09:21:39;100555.41;;;19.96;66.18
33625;BME280;19962;47.820;1.930;2023-05-22T09:24:09;100553.13;;;20.03;66.69
33625;BME280;19962;47.820;1.930;2023-05-22T09:26:39;100555.00;;;20.12;66.21
33625;BME280;19962;47.820;1.930;2023-05-22T09:29:06;100554.38;;;20.20;66.97
33625;BME280;19962;47.820;1.930;2023-05-22T09:31:37;100553.47;;;20.30;66.28
33625;BME280;19962;47.820;1.930;2023-05-22T09:34:06;100559.56;;;20.32;66.47
33625;BME280;19962;47.820;1.930;2023-05-22T09:36:34;100561.50;;;20.31;66.64
33625;BME280;19962;47.820;1.930;2023-05-22T09:39:00;100554.22;;;20.35;66.52
33625;BME280;19962;47.820;1.930;2023-05-22T09:41:28;100553.63;;;20.38;66.52
33625;BME280;19962;47.820;1.930;2023-05-22T09:43:57;100559.78;;;20.35;66.36
33625;BME280;19962;47.820;1.930;2023-05-22T09:46:23;100560.28;;;20.42;66.33
33625;BME280;19962;47.820;1.930;2023-05-22T09:48:53;100561.13;;;20.43;66.02
33625;BME280;19962;47.820;1.930;2023-05-22T09:51:22;100558.56;;;20.46;66.23
33625;BME280;19962;47.820;1.930;2023-05-22T09:53:49;100562.66;;;20.54;65.80
33625;BME280;19962;47.820;1.930;2023-05-22T09:56:17;100552.88;;;20.56;65.83
33625;BME280;19962;47.820;1.930;2023-05-22T09:58:45;100545.81;;;20.64;65.39
33625;BME280;19962;47.820;1.930;2023-05-22T10:01:13;100546.66;;;20.64;65.59
33625;BME280;19962;47.820;1.930;2023-05-22T10:03:42;100558.88;;;20.68;66.26
33625;BME280;19962;47.820;1.930;2023-05-22T10:06:10;100550.16;;;20.75;65.77
33625;BME280;19962;47.820;1.930;2023-05-22T10:08:43;100556.28;;;20.77;65.54
33625;BME280;19962;47.820;1.930;2023-05-22T10:11:14;100538.66;;;20.81;65.15
33625;BME280;19962;47.820;1.930;2023-05-22T10:13:42;100545.34;;;20.80;65.31
33625;BME280;19962;47.820;1.930;2023-05-22T10:16:11;100542.88;;;20.79;66.61
33625;BME280;19962;47.820;1.930;2023-05-22T10:18:38;100539.75;;;20.80;66.67
33625;BME280;19962;47.820;1.930;2023-05-22T10:21:05;100546.66;;;20.88;66.64
33625;BME280;19962;47.820;1.930;2023-05-22T10:23:32;100541.91;;;20.88;66.35
33625;BME280;19962;47.820;1.930;2023-05-22T10:25:58;100545.28;;;20.90;65.71
33625;BME280;19962;47.820;1.930;2023-05-22T10:28:29;100541.88;;;20.93;66.19
33625;BME280;19962;47.820;1.930;2023-05-22T10:31:13;100543.00;;;20.92;66.83
33625;BME280;19962;47.820;1.930;2023-05-22T10:33:46;100536.25;;;20.98;66.78
33625;BME280;19962;47.820;1.930;2023-05-22T10:36:24;100542.50;;;21.09;67.21
33625;BME280;19962;47.820;1.930;2023-05-22T10:41:45;100535.88;;;21.23;66.47
33625;BME280;19962;47.820;1.930;2023-05-22T10:44:11;100535.59;;;21.25;66.17
33625;BME280;19962;47.820;1.930;2023-05-22T10:46:38;100542.44;;;21.32;65.95
33625;BME280;19962;47.820;1.930;2023-05-22T10:49:04;100543.88;;;21.30;65.83
33625;BME280;19962;47.820;1.930;2023-05-22T10:51:31;100533.31;;;21.27;65.84
33625;BME280;19962;47.820;1.930;2023-05-22T10:54:00;100535.28;;;21.26;66.04
33625;BME280;19962;47.820;1.930;2023-05-22T10:56:34;100526.44;;;21.19;67.25
33625;BME280;19962;47.820;1.930;2023-05-22T10:59:03;100529.03;;;21.34;66.44
33625;BME280;19962;47.820;1.930;2023-05-22T11:01:33;100518.91;;;21.38;66.34
33625;BME280;19962;47.820;1.930;2023-05-22T11:06:39;100521.47;;;21.53;65.27
33625;BME280;19962;47.820;1.930;2023-05-22T11:11:44;100517.38;;;21.64;65.31
33625;BME280;19962;47.820;1.930;2023-05-22T11:14:11;100507.56;;;21.67;64.99
33625;BME280;19962;47.820;1.930;2023-05-22T11:16:40;100508.94;;;21.69;65.70
33625;BME280;19962;47.820;1.930;2023-05-22T11:19:07;100512.28;;;21.71;65.29
33625;BME280;19962;47.820;1.930;2023-05-22T11:21:41;100506.91;;;21.75;65.17
33625;BME280;19962;47.820;1.930;2023-05-22T11:24:08;100500.81;;;21.73;65.64
33625;BME280;19962;47.820;1.930;2023-05-22T11:26:35;100515.00;;;21.76;66.10
33625;BME280;19962;47.820;1.930;2023-05-22T11:29:01;100505.28;;;21.87;66.71
33625;BME280;19962;47.820;1.930;2023-05-22T11:31:31;100497.66;;;21.93;66.44
33625;BME280;19962;47.820;1.930;2023-05-22T11:33:58;100499.66;;;21.92;66.16
33625;BME280;19962;47.820;1.930;2023-05-22T11:36:28;100504.09;;;21.93;66.41
33625;BME280;19962;47.820;1.930;2023-05-22T11:38:58;100503.91;;;22.03;66.71
33625;BME280;19962;47.820;1.930;2023-05-22T11:41:33;100497.06;;;21.96;65.89
33625;BME280;19962;47.820;1.930;2023-05-22T11:44:01;100507.84;;;22.02;65.63
33625;BME280;19962;47.820;1.930;2023-05-22T11:46:27;100506.19;;;22.01;65.26
33625;BME280;19962;47.820;1.930;2023-05-22T11:48:55;100487.59;;;22.10;65.07
33625;BME280;19962;47.820;1.930;2023-05-22T11:51:21;100491.22;;;22.24;65.67
33625;BME280;19962;47.820;1.930;2023-05-22T11:53:47;100500.44;;;22.38;65.26
33625;BME280;19962;47.820;1.930;2023-05-22T11:56:13;100493.34;;;22.46;65.17
33625;BME280;19962;47.820;1.930;2023-05-22T11:58:40;100495.13;;;22.55;65.13
33625;BME280;19962;47.820;1.930;2023-05-22T12:01:06;100501.75;;;22.59;64.68
33625;BME280;19962;47.820;1.930;2023-05-22T12:03:32;100504.66;;;22.54;64.14
33625;BME280;19962;47.820;1.930;2023-05-22T12:05:58;100509.34;;;22.27;64.10
33625;BME280;19962;47.820;1.930;2023-05-22T12:08:26;100503.03;;;22.35;63.53
33625;BME280;19962;47.820;1.930;2023-05-22T12:10:53;100499.47;;;22.48;62.94
33625;BME280;19962;47.820;1.930;2023-05-22T12:13:27;100503.59;;;22.50;62.80
33625;BME280;19962;47.820;1.930;2023-05-22T12:15:58;100495.13;;;22.55;63.03
33625;BME280;19962;47.820;1.930;2023-05-22T12:18:26;100498.19;;;22.67;63.11
33625;BME280;19962;47.820;1.930;2023-05-22T12:20:55;100499.22;;;22.71;63.19
33625;BME280;19962;47.820;1.930;2023-05-22T12:23:25;100500.06;;;22.72;62.85
33625;BME280;19962;47.820;1.930;2023-05-22T12:26:07;100492.81;;;22.57;62.76
33625;BME280;19962;47.820;1.930;2023-05-22T12:28:33;100497.81;;;22.60;62.64
33625;BME280;19962;47.820;1.930;2023-05-22T12:31:00;100497.91;;;22.69;63.47
33625;BME280;19962;47.820;1.930;2023-05-22T12:33:27;100497.19;;;22.63;63.09
33625;BME280;19962;47.820;1.930;2023-05-22T12:35:54;100483.50;;;22.75;62.54
33625;BME280;19962;47.820;1.930;2023-05-22T12:38:24;100480.38;;;22.90;62.71
33625;BME280;19962;47.820;1.930;2023-05-22T12:40:51;100490.50;;;23.00;62.47
33625;BME280;19962;47.820;1.930;2023-05-22T12:43:18;100484.72;;;23.10;62.50
33625;BME280;19962;47.820;1.930;2023-05-22T12:45:44;100481.19;;;23.04;62.68
33625;BME280;19962;47.820;1.930;2023-05-22T12:48:10;100481.00;;;22.87;63.05
33625;BME280;19962;47.820;1.930;2023-05-22T12:50:36;100488.38;;;22.70;63.38
33625;BME280;19962;47.820;1.930;2023-05-22T12:53:03;100476.84;;;22.71;63.31
33625;BME280;19962;47.820;1.930;2023-05-22T12:55:29;100477.09;;;22.75;63.53
33625;BME280;19962;47.820;1.930;2023-05-22T12:57:55;100482.88;;;22.78;63.01
33625;BME280;19962;47.820;1.930;2023-05-22T13:00:22;100470.44;;;22.84;63.07
33625;BME280;19962;47.820;1.930;2023-05-22T13:02:48;100479.34;;;22.86;62.99
33625;BME280;19962;47.820;1.930;2023-05-22T13:05:14;100477.69;;;22.85;62.84
33625;BME280;19962;47.820;1.930;2023-05-22T13:07:41;100469.63;;;22.84;62.82
33625;BME280;19962;47.820;1.930;2023-05-22T13:10:07;100472.19;;;22.80;63.28